createdAt,value
2022-09-04T00:00:21.517Z,1.60
2022-09-04T00:03:16.021Z,2.90
2022-09-04T00:08:51.405Z,2.90
2022-09-04T00:11:47.917Z,5.00
2022-09-04T00:14:31.355Z,2.00
2022-09-04T00:17:11.437Z,1.60
2022-09-04T00:19:56.737Z,3.20
2022-09-04T00:22:44.665Z,2.80
2022-09-04T00:25:20.649Z,2.80
2022-09-04T00:28:00.497Z,2.20
2022-09-04T00:30:31.365Z,1.80
2022-09-04T00:33:11.977Z,6.20
2022-09-04T00:38:39.109Z,2.30
2022-09-04T00:41:42.945Z,2.60
2022-09-04T00:44:33.586Z,2.90
2022-09-04T00:47:36.565Z,2.30
2022-09-04T00:50:45.869Z,3.70
2022-09-04T00:53:33.858Z,1.90
2022-09-04T00:56:37.007Z,3.00
2022-09-04T00:59:16.808Z,4.30
2022-09-04T01:01:48.201Z,3.20
2022-09-04T01:04:43.617Z,1.70
2022-09-04T01:07:37.627Z,2.30
2022-09-04T01:10:41.940Z,1.90
2022-09-04T01:13:44.331Z,3.10
2022-09-04T01:16:31.792Z,2.80
2022-09-04T01:19:15.737Z,2.90
2022-09-04T01:22:19.947Z,2.30
2022-09-04T01:25:06.147Z,2.80
2022-09-04T01:27:51.860Z,1.70
2022-09-04T01:30:23.673Z,3.00
2022-09-04T01:33:19.148Z,2.50
2022-09-04T01:36:16.846Z,2.80
2022-09-04T01:39:03.488Z,3.10
2022-09-04T01:41:39.718Z,3.30
2022-09-04T01:44:12.487Z,2.50
2022-09-04T01:46:50.608Z,2.00
2022-09-04T01:49:38.529Z,2.50
2022-09-04T01:52:46.066Z,5.10
2022-09-04T01:55:31.078Z,4.40
2022-09-04T01:58:20.209Z,3.60
2022-09-04T02:00:57.768Z,1.90
2022-09-04T02:03:49.660Z,1.60
2022-09-04T02:06:34.968Z,2.00
2022-09-04T02:09:39.147Z,3.90
2022-09-04T02:12:23.145Z,5.20
2022-09-04T02:15:14.406Z,3.10
2022-09-04T02:17:56.448Z,3.20
2022-09-04T02:23:30.778Z,2.20
2022-09-04T02:26:10.028Z,2.80
2022-09-04T02:29:01.698Z,2.10
2022-09-04T02:32:00.821Z,3.40
2022-09-04T02:34:39.978Z,1.70
2022-09-04T02:37:16.171Z,2.10
2022-09-04T02:40:01.805Z,2.20
2022-09-04T02:42:40.558Z,3.20
2022-09-04T02:45:25.179Z,1.60
2022-09-04T02:48:08.819Z,2.30
2022-09-04T02:50:54.208Z,2.40
2022-09-04T02:53:49.288Z,3.90
2022-09-04T02:56:37.888Z,2.10
2022-09-04T02:59:41.559Z,2.20
2022-09-04T03:02:25.237Z,2.80
2022-09-04T03:05:08.035Z,4.50
2022-09-04T03:07:49.089Z,3.20
2022-09-04T03:10:23.098Z,3.00
2022-09-04T03:13:01.974Z,2.70
2022-09-04T03:15:41.487Z,4.10
2022-09-04T03:18:16.944Z,3.40
2022-09-04T03:21:01.663Z,2.10
2022-09-04T03:24:12.888Z,3.60
2022-09-04T03:26:48.709Z,2.20
2022-09-04T03:29:32.329Z,2.10
2022-09-04T03:32:28.227Z,4.30
2022-09-04T03:35:04.551Z,2.10
2022-09-04T03:37:50.139Z,3.70
2022-09-04T03:40:26.638Z,2.20
2022-09-04T03:43:18.533Z,2.90
2022-09-04T03:46:16.582Z,3.80
2022-09-04T03:49:06.829Z,3.40
2022-09-04T03:51:59.119Z,2.80
2022-09-04T03:54:40.835Z,2.20
2022-09-04T03:57:22.137Z,4.00
2022-09-04T04:00:23.410Z,2.40
2022-09-04T04:03:19.949Z,3.60
2022-09-04T04:05:57.068Z,3.20
2022-09-04T04:09:14.828Z,5.00
2022-09-04T04:11:56.467Z,2.30
2022-09-04T04:14:38.016Z,2.80
2022-09-04T04:17:48.277Z,3.00
2022-09-04T04:20:29.872Z,1.80
2022-09-04T04:23:19.238Z,1.80
2022-09-04T04:26:41.054Z,3.10
2022-09-04T04:29:26.946Z,1.70
2022-09-04T04:32:27.097Z,2.10
2022-09-04T04:35:08.986Z,3.60
2022-09-04T04:37:52.227Z,3.90
2022-09-04T04:40:28.579Z,2.00
2022-09-04T04:43:34.091Z,4.20
2022-09-04T04:46:59.872Z,2.90
2022-09-04T04:50:08.932Z,2.90
2022-09-04T04:52:57.656Z,3.10
2022-09-04T04:55:50.875Z,2.90
2022-09-04T04:58:40.127Z,3.90
2022-09-04T05:01:22.446Z,1.70
2022-09-04T05:04:30.516Z,2.20
2022-09-04T05:07:12.848Z,2.10
2022-09-04T05:10:08.019Z,2.00
2022-09-04T05:13:09.809Z,2.50
2022-09-04T05:16:07.488Z,2.70
2022-09-04T05:19:30.068Z,2.10
2022-09-04T05:22:24.818Z,3.50
2022-09-04T05:25:10.128Z,2.70
2022-09-04T05:28:02.274Z,2.00
2022-09-04T05:31:09.685Z,2.00
2022-09-04T05:34:01.493Z,2.90
2022-09-04T05:36:59.273Z,3.20
2022-09-04T05:40:03.704Z,2.20
2022-09-04T05:43:11.387Z,4.50
2022-09-04T05:46:03.219Z,2.40
2022-09-04T05:48:47.699Z,3.00
2022-09-04T05:51:27.265Z,2.80
2022-09-04T05:54:15.976Z,2.20
2022-09-04T05:57:04.701Z,2.60
2022-09-04T06:00:01.093Z,3.40
2022-09-04T06:03:00.175Z,2.00
2022-09-04T06:06:16.118Z,2.20
2022-09-04T06:08:54.789Z,4.30
2022-09-04T06:12:14.093Z,3.50
2022-09-04T06:15:24.806Z,1.90
2022-09-04T06:18:14.327Z,2.10
2022-09-04T06:21:09.068Z,3.10
2022-09-04T06:24:10.955Z,3.30
2022-09-04T06:27:12.258Z,4.10
2022-09-04T06:29:48.497Z,2.00
2022-09-04T06:32:43.067Z,2.30
2022-09-04T06:35:29.595Z,2.60
2022-09-04T06:38:27.966Z,3.20
2022-09-04T06:41:13.044Z,3.10
2022-09-04T06:43:50.678Z,2.90
2022-09-04T06:46:29.413Z,2.00
2022-09-04T06:49:26.868Z,2.10
2022-09-04T06:52:15.558Z,2.20
2022-09-04T06:55:11.429Z,2.70
2022-09-04T06:58:07.148Z,2.80
2022-09-04T07:01:03.481Z,1.70
2022-09-04T07:03:59.023Z,2.30
2022-09-04T07:06:47.468Z,3.40
2022-09-04T07:09:30.788Z,2.80
2022-09-04T07:12:19.529Z,2.50
2022-09-04T07:15:12.786Z,3.70
2022-09-04T07:17:59.532Z,4.50
2022-09-04T07:20:43.375Z,1.70
2022-09-04T07:23:45.497Z,2.90
2022-09-04T07:26:43.509Z,2.00
2022-09-04T07:29:32.617Z,1.60
2022-09-04T07:32:11.429Z,2.20
2022-09-04T07:35:25.537Z,3.00
2022-09-04T07:38:13.313Z,2.30
2022-09-04T07:41:04.167Z,3.20
2022-09-04T07:43:54.642Z,3.50
2022-09-04T07:46:47.357Z,2.90
2022-09-04T07:50:09.023Z,2.30
2022-09-04T07:53:14.397Z,3.30
2022-09-04T07:56:22.838Z,3.70
2022-09-04T07:59:13.997Z,3.90
2022-09-04T08:02:19.813Z,2.80
2022-09-04T08:05:11.265Z,2.40
2022-09-04T08:07:41.623Z,3.30
2022-09-04T08:10:33.197Z,2.00
2022-09-04T08:13:45.179Z,2.20
2022-09-04T08:16:35.028Z,2.50
2022-09-04T08:19:09.125Z,5.40
2022-09-04T08:21:44.905Z,3.60
2022-09-04T08:24:39.769Z,2.10
2022-09-04T08:27:42.952Z,2.00
2022-09-04T08:30:17.581Z,5.10
2022-09-04T08:33:10.778Z,8.40
2022-09-04T08:35:56.772Z,2.90
2022-09-04T08:39:06.905Z,4.80
2022-09-04T08:42:23.570Z,2.70
2022-09-04T08:45:27.411Z,1.40
2022-09-04T08:48:17.095Z,3.20
2022-09-04T08:51:27.016Z,3.20
2022-09-04T08:54:25.689Z,2.30
2022-09-04T08:57:30.694Z,1.90
2022-09-04T09:00:10.534Z,2.60
2022-09-04T09:06:02.539Z,4.40
2022-09-04T09:09:07.198Z,1.90
2022-09-04T09:12:09.458Z,1.80
2022-09-04T09:15:01.098Z,3.00
2022-09-04T09:17:50.388Z,2.00
2022-09-04T09:20:56.201Z,5.20
2022-09-04T09:23:42.161Z,1.60
2022-09-04T09:26:31.498Z,2.00
2022-09-04T09:29:29.318Z,1.90
2022-09-04T09:32:36.637Z,3.00
2022-09-04T09:35:35.308Z,2.00
2022-09-04T09:38:39.815Z,3.50
2022-09-04T09:41:34.188Z,2.30
2022-09-04T09:44:22.436Z,2.30
2022-09-04T09:47:11.349Z,4.30
2022-09-04T09:50:06.653Z,2.50
2022-09-04T09:52:58.729Z,4.60
2022-09-04T09:55:47.305Z,5.60
2022-09-04T09:58:41.532Z,3.50
2022-09-04T10:01:27.535Z,2.40
2022-09-04T10:04:23.456Z,5.30
2022-09-04T10:07:32.936Z,2.00
2022-09-04T10:10:23.451Z,3.40
2022-09-04T10:13:37.046Z,3.30
2022-09-04T10:16:17.750Z,2.70
2022-09-04T10:19:18.326Z,2.90
2022-09-04T10:22:20.283Z,2.80
2022-09-04T10:25:28.958Z,2.60
2022-09-04T10:28:26.382Z,2.60
2022-09-04T10:31:15.164Z,2.30
2022-09-04T10:34:24.568Z,6.40
2022-09-04T10:40:23.051Z,6.50
2022-09-04T10:42:56.354Z,4.90
2022-09-04T10:45:35.326Z,1.80
2022-09-04T10:48:14.316Z,1.90
2022-09-04T10:51:03.612Z,4.70
2022-09-04T10:53:58.726Z,3.30
2022-09-04T10:56:55.736Z,1.70
2022-09-04T10:59:41.597Z,1.60
2022-09-04T11:02:39.612Z,5.50
2022-09-04T11:06:03.977Z,2.10
2022-09-04T11:09:09.807Z,3.40
2022-09-04T11:11:53.566Z,1.30
2022-09-04T11:14:40.496Z,6.40
2022-09-04T11:17:10.835Z,3.80
2022-09-04T11:19:47.245Z,3.70
2022-09-04T11:22:36.191Z,2.20
2022-09-04T11:25:50.768Z,2.50
2022-09-04T11:28:47.106Z,2.90
2022-09-04T11:31:36.386Z,2.00
2022-09-04T11:36:59.886Z,8.60
2022-09-04T11:40:01.913Z,11.40
2022-09-04T11:42:32.175Z,4.20
2022-09-04T11:45:23.794Z,3.80
2022-09-04T11:48:31.208Z,3.40
2022-09-04T11:51:42.444Z,2.70
2022-09-04T11:54:43.118Z,4.10
2022-09-04T11:57:38.146Z,4.60
2022-09-04T12:00:19.377Z,1.80
2022-09-04T12:03:21.766Z,3.50
2022-09-04T12:06:24.266Z,3.90
2022-09-04T12:09:23.358Z,1.80
2022-09-04T12:12:14.727Z,2.40
2022-09-04T12:15:17.706Z,3.50
2022-09-04T12:18:22.790Z,1.50
2022-09-04T12:21:43.949Z,4.00
2022-09-04T12:24:41.631Z,3.00
2022-09-04T12:27:31.257Z,3.70
2022-09-04T12:30:24.030Z,2.60
2022-09-04T12:33:23.600Z,4.30
2022-09-04T12:36:04.699Z,4.60
2022-09-04T12:39:07.217Z,4.00
2022-09-04T12:42:03.856Z,1.60
2022-09-04T12:45:14.986Z,7.00
2022-09-04T12:48:26.758Z,2.60
2022-09-04T12:51:24.458Z,3.40
2022-09-04T12:54:25.176Z,19.30
2022-09-04T12:57:21.622Z,13.10
2022-09-04T13:00:48.456Z,3.10
2022-09-04T13:03:32.081Z,4.00
2022-09-04T13:06:11.779Z,4.00
2022-09-04T13:09:24.403Z,1.50
2022-09-04T13:12:44.492Z,1.70
2022-09-04T13:15:20.297Z,1.90
2022-09-04T13:18:09.076Z,2.40
2022-09-04T13:20:56.600Z,5.60
2022-09-04T13:23:46.260Z,2.00
2022-09-04T13:26:30.078Z,2.30
2022-09-04T13:29:17.470Z,2.20
2022-09-04T13:32:00.873Z,1.70
2022-09-04T13:35:00.765Z,2.90
2022-09-04T13:37:45.656Z,1.60
2022-09-04T13:40:43.046Z,3.50
2022-09-04T13:43:39.026Z,1.70
2022-09-04T13:46:31.715Z,8.30
2022-09-04T13:49:08.059Z,6.00
2022-09-04T13:51:46.428Z,5.40
2022-09-04T13:54:31.297Z,1.50
2022-09-04T13:57:23.179Z,1.80
2022-09-04T13:59:55.859Z,3.10
2022-09-04T14:02:32.347Z,2.90
2022-09-04T14:05:18.689Z,3.10
2022-09-04T14:07:53.389Z,1.40
2022-09-04T14:10:48.759Z,1.90
2022-09-04T14:13:36.149Z,3.60
2022-09-04T14:16:12.046Z,2.10
2022-09-04T14:18:45.243Z,4.30
2022-09-04T14:21:35.275Z,3.70
2022-09-04T14:24:22.676Z,2.80
2022-09-04T14:27:16.056Z,2.20
2022-09-04T14:30:16.515Z,1.30
2022-09-04T14:33:08.718Z,3.70
2022-09-04T14:36:10.529Z,1.30
2022-09-04T14:38:48.161Z,2.80
2022-09-04T14:41:56.178Z,3.60
2022-09-04T14:44:54.328Z,5.10
2022-09-04T14:50:01.767Z,2.80
2022-09-04T14:52:40.158Z,2.50
2022-09-04T14:55:19.655Z,1.90
2022-09-04T14:57:56.041Z,1.80
2022-09-04T15:00:26.891Z,2.20
2022-09-04T15:03:19.259Z,1.60
2022-09-04T15:06:08.604Z,2.10
2022-09-04T15:08:40.831Z,1.70
2022-09-04T15:11:14.360Z,7.40
2022-09-04T15:14:00.159Z,4.50
2022-09-04T15:16:43.307Z,3.70
2022-09-04T15:20:01.208Z,4.90
2022-09-04T15:22:49.312Z,3.40
2022-09-04T15:25:19.786Z,23.80
2022-09-04T15:28:01.562Z,2.80
2022-09-04T15:30:41.502Z,1.50
2022-09-04T15:33:20.411Z,8.70
2022-09-04T15:36:08.137Z,2.30
2022-09-04T15:38:39.518Z,2.20
2022-09-04T15:41:28.759Z,3.20
2022-09-04T15:44:41.610Z,7.30
2022-09-04T15:47:41.341Z,8.20
2022-09-04T15:50:27.716Z,7.00
2022-09-04T15:53:28.001Z,4.20
2022-09-04T15:56:32.648Z,3.50
2022-09-04T15:59:07.797Z,1.80
2022-09-04T16:02:13.483Z,2.10
2022-09-04T16:05:03.730Z,1.10
2022-09-04T16:07:54.564Z,3.50
2022-09-04T16:10:30.381Z,8.70
2022-09-04T16:13:28.587Z,30.40
2022-09-04T16:16:04.578Z,13.10
2022-09-04T16:18:45.758Z,10.30
2022-09-04T16:21:41.828Z,5.90
2022-09-04T16:24:36.587Z,9.10
2022-09-04T16:27:15.295Z,8.70
2022-09-04T16:29:57.691Z,4.70
2022-09-04T16:32:35.696Z,3.00
2022-09-04T16:35:22.243Z,7.90
2022-09-04T16:38:00.472Z,7.20
2022-09-04T16:40:56.709Z,4.00
2022-09-04T16:43:34.564Z,1.70
2022-09-04T16:46:28.664Z,2.20
2022-09-04T16:49:08.851Z,6.60
2022-09-04T16:51:46.308Z,6.00
2022-09-04T16:54:19.866Z,4.70
2022-09-04T16:57:12.123Z,3.80
2022-09-04T17:00:04.244Z,9.70
2022-09-04T17:02:53.904Z,23.40
2022-09-04T17:05:49.878Z,19.50
2022-09-04T17:08:34.256Z,25.20
2022-09-04T17:11:16.758Z,60.80
2022-09-04T17:13:55.808Z,21.50
2022-09-04T17:16:41.609Z,22.70
2022-09-04T17:19:16.438Z,11.90
2022-09-04T17:28:56.902Z,10.00
2022-09-04T17:29:11.052Z,5.60
2022-09-04T17:29:12.476Z,6.90
2022-09-04T17:31:18.454Z,8.30
2022-09-04T17:40:33.343Z,8.10
2022-09-04T17:40:41.634Z,12.90
2022-09-04T17:40:53.291Z,23.40
2022-09-04T17:44:02.656Z,21.00
2022-09-04T17:46:39.458Z,14.20
2022-09-04T17:49:21.677Z,7.20
2022-09-04T17:52:09.203Z,17.20
2022-09-04T17:54:49.118Z,9.10
2022-09-04T17:57:32.202Z,2.30
2022-09-04T18:00:20.683Z,4.80
2022-09-04T18:03:07.207Z,4.80
2022-09-04T18:05:53.070Z,4.10
2022-09-04T18:08:57.578Z,3.10
2022-09-04T18:11:32.787Z,7.30
2022-09-04T18:14:09.676Z,7.90
2022-09-04T18:16:42.442Z,5.10
2022-09-04T18:19:34.389Z,1.60
2022-09-04T18:22:42.546Z,3.60
2022-09-04T18:25:24.576Z,4.80
2022-09-04T18:28:18.207Z,7.50
2022-09-04T18:37:09.139Z,9.20
2022-09-04T18:37:26.723Z,2.00
2022-09-04T18:37:55.544Z,1.10
2022-09-04T18:42:39.750Z,1.30
2022-09-04T18:50:28.302Z,1.30
2022-09-04T18:50:39.641Z,1.50
2022-09-04T18:51:04.356Z,1.50
2022-09-04T18:52:30.527Z,2.90
2022-09-04T18:55:11.648Z,1.30
2022-09-04T18:57:52.578Z,2.00
2022-09-04T19:00:37.291Z,2.70
2022-09-04T19:03:35.297Z,2.70
2022-09-04T19:06:14.019Z,1.90
2022-09-04T19:08:52.028Z,2.40
2022-09-04T19:11:50.006Z,1.80
2022-09-04T19:14:26.045Z,3.30
2022-09-04T19:17:02.525Z,1.80
2022-09-04T19:20:07.176Z,5.60
2022-09-04T19:22:50.817Z,4.70
2022-09-04T19:25:36.126Z,5.90
2022-09-04T19:28:26.621Z,1.90
2022-09-04T19:31:02.203Z,4.00
2022-09-04T19:33:57.750Z,3.20
2022-09-04T19:36:47.527Z,3.30
2022-09-04T19:46:03.816Z,2.20
2022-09-04T19:46:18.374Z,2.10
2022-09-04T19:48:40.202Z,3.30
2022-09-04T19:53:32.086Z,13.00
2022-09-04T19:54:38.225Z,8.40
2022-09-04T19:57:35.337Z,4.10
2022-09-04T20:00:43.239Z,1.50
2022-09-04T20:03:09.427Z,1.50
2022-09-04T20:05:41.609Z,2.50
2022-09-04T20:08:14.857Z,1.80
2022-09-04T20:11:03.298Z,2.80
2022-09-04T20:13:46.101Z,2.50
2022-09-04T20:16:23.323Z,3.50
2022-09-04T20:19:11.797Z,1.90
2022-09-04T20:22:29.667Z,1.60
2022-09-04T20:25:25.310Z,1.80
2022-09-04T20:28:16.957Z,2.10
2022-09-04T20:31:02.978Z,2.40
2022-09-04T20:33:59.068Z,1.90
2022-09-04T20:36:36.019Z,1.40
2022-09-04T20:39:14.650Z,3.60
2022-09-04T20:42:00.940Z,3.20
2022-09-04T20:44:52.474Z,1.50
2022-09-04T20:52:52.042Z,1.60
2022-09-04T20:52:58.062Z,2.40
2022-09-04T20:54:15.107Z,4.60
2022-09-04T21:00:34.806Z,3.90
2022-09-04T21:03:07.336Z,1.80
2022-09-04T21:03:35.420Z,1.20
2022-09-04T21:06:34.842Z,1.60
2022-09-04T21:09:36.532Z,1.10
2022-09-04T21:12:22.318Z,1.50
2022-09-04T21:15:18.966Z,1.10
2022-09-04T21:18:01.378Z,1.50
2022-09-04T21:20:55.103Z,2.30
2022-09-04T21:23:37.135Z,1.50
2022-09-04T21:26:26.438Z,1.70
2022-09-04T21:29:11.581Z,1.80
2022-09-04T21:31:50.413Z,2.50
2022-09-04T21:34:50.179Z,2.50
2022-09-04T21:37:26.129Z,1.00
2022-09-04T21:40:49.713Z,2.10
2022-09-04T21:43:36.002Z,2.70
2022-09-04T21:46:34.907Z,1.70
2022-09-04T21:49:56.459Z,1.70
2022-09-04T21:52:55.931Z,1.70
2022-09-04T22:00:25.415Z,1.80
2022-09-04T22:02:36.258Z,1.10
2022-09-04T22:02:37.798Z,1.60
2022-09-04T22:04:44.453Z,1.80
2022-09-04T22:12:13.057Z,2.10
2022-09-04T22:13:30.398Z,1.30
2022-09-04T22:13:53.495Z,1.10
2022-09-04T22:17:07.068Z,1.10
2022-09-04T22:19:49.568Z,1.70
2022-09-04T22:22:58.557Z,1.50
2022-09-04T22:25:53.319Z,2.20
2022-09-04T22:28:53.935Z,2.90
2022-09-04T22:31:24.830Z,2.70
2022-09-04T22:34:27.882Z,1.40
2022-09-04T22:37:22.770Z,1.40
2022-09-04T22:40:03.430Z,1.40
2022-09-04T22:42:44.047Z,2.10
2022-09-04T22:45:36.528Z,2.60
2022-09-04T22:49:11.914Z,1.70
2022-09-04T22:52:10.211Z,2.90
2022-09-04T22:55:38.496Z,2.00
2022-09-04T22:58:43.677Z,2.30
2022-09-04T23:01:43.094Z,3.00
2022-09-04T23:04:45.520Z,1.50
2022-09-04T23:11:18.550Z,0.90
2022-09-04T23:13:56.778Z,1.30
2022-09-04T23:14:09.442Z,2.40
2022-09-04T23:17:00.197Z,1.10
2022-09-04T23:26:37.993Z,1.50
2022-09-04T23:26:53.271Z,1.20
2022-09-04T23:27:00.796Z,1.80
2022-09-04T23:30:04.901Z,2.80
2022-09-04T23:33:13.478Z,2.10
2022-09-04T23:36:11.690Z,1.50
2022-09-04T23:39:32.899Z,3.50
2022-09-04T23:42:44.000Z,1.30
2022-09-04T23:46:00.994Z,2.20
2022-09-04T23:49:34.881Z,1.70
2022-09-04T23:53:00.523Z,2.80
